createdAt,value
2018-10-11T00:00:04.201Z,14.36
2018-10-11T00:02:32.765Z,14.32
2018-10-11T00:05:01.366Z,14.32
2018-10-11T00:07:29.953Z,14.34
2018-10-11T00:09:58.544Z,14.32
2018-10-11T00:12:27.081Z,14.37
2018-10-11T00:14:55.809Z,14.30
2018-10-11T00:17:24.447Z,14.23
2018-10-11T00:19:53.049Z,14.23
2018-10-11T00:22:21.563Z,14.26
2018-10-11T00:24:50.058Z,14.32
2018-10-11T00:27:18.593Z,14.30
2018-10-11T00:29:47.131Z,14.17
2018-10-11T00:32:15.634Z,14.09
2018-10-11T00:34:44.215Z,14.10
2018-10-11T00:37:12.815Z,13.96
2018-10-11T00:39:41.385Z,13.83
2018-10-11T00:42:09.876Z,13.97
2018-10-11T00:44:38.394Z,13.97
2018-10-11T00:47:07.317Z,13.80
2018-10-11T00:49:35.888Z,13.77
2018-10-11T00:52:04.458Z,13.68
2018-10-11T00:54:33.018Z,13.67
2018-10-11T00:57:01.547Z,13.81
2018-10-11T00:59:30.155Z,13.69
2018-10-11T01:01:58.708Z,13.56
2018-10-11T01:04:27.234Z,13.42
2018-10-11T01:06:55.804Z,13.38
2018-10-11T01:09:24.377Z,13.31
2018-10-11T01:11:52.887Z,13.32
2018-10-11T01:14:21.462Z,13.32
2018-10-11T01:16:49.977Z,13.29
2018-10-11T01:19:18.604Z,13.30
2018-10-11T01:21:47.126Z,13.17
2018-10-11T01:24:15.626Z,13.06
2018-10-11T01:26:44.158Z,13.19
2018-10-11T01:29:12.935Z,13.19
2018-10-11T01:31:41.557Z,13.10
2018-10-11T01:34:10.064Z,13.13
2018-10-11T01:36:38.574Z,13.01
2018-10-11T01:39:07.379Z,13.04
2018-10-11T01:41:35.936Z,13.08
2018-10-11T01:44:04.493Z,13.02
2018-10-11T01:46:33.022Z,13.03
2018-10-11T01:49:01.728Z,13.01
2018-10-11T01:51:30.802Z,13.08
2018-10-11T01:53:59.358Z,13.07
2018-10-11T01:56:28.505Z,12.91
2018-10-11T01:58:57.050Z,12.87
2018-10-11T02:01:25.674Z,12.88
2018-10-11T02:03:54.191Z,12.77
2018-10-11T02:06:22.710Z,12.72
2018-10-11T02:08:51.285Z,12.63
2018-10-11T02:11:19.854Z,12.60
2018-10-11T02:13:48.371Z,12.56
2018-10-11T02:16:16.905Z,12.54
2018-10-11T02:18:45.450Z,12.63
2018-10-11T02:21:13.977Z,12.52
2018-10-11T02:23:42.534Z,12.54
2018-10-11T02:26:11.150Z,12.50
2018-10-11T02:28:39.659Z,12.76
2018-10-11T02:31:08.242Z,12.63
2018-10-11T02:33:36.870Z,12.51
2018-10-11T02:36:05.441Z,12.39
2018-10-11T02:38:34.011Z,12.41
2018-10-11T02:41:02.615Z,12.40
2018-10-11T02:43:31.215Z,12.43
2018-10-11T02:45:59.725Z,12.59
2018-10-11T02:48:28.359Z,12.45
2018-10-11T02:50:56.923Z,12.32
2018-10-11T02:53:25.466Z,12.26
2018-10-11T02:55:54.053Z,12.24
2018-10-11T02:58:33.658Z,12.22
2018-10-11T03:01:02.343Z,12.33
2018-10-11T03:03:31.069Z,12.22
2018-10-11T03:06:00.310Z,12.18
2018-10-11T03:08:29.234Z,12.12
2018-10-11T03:10:58.137Z,12.12
2018-10-11T03:13:26.707Z,12.20
2018-10-11T03:15:55.228Z,12.03
2018-10-11T03:18:23.726Z,11.98
2018-10-11T03:20:52.270Z,12.01
2018-10-11T03:23:20.863Z,11.94
2018-10-11T03:25:49.412Z,11.88
2018-10-11T03:28:18.398Z,11.83
2018-10-11T03:30:46.943Z,11.78
2018-10-11T03:33:15.754Z,11.78
2018-10-11T03:35:44.932Z,11.85
2018-10-11T03:38:13.961Z,11.89
2018-10-11T03:40:42.674Z,11.96
2018-10-11T03:43:11.277Z,11.97
2018-10-11T03:45:39.840Z,11.98
2018-10-11T03:48:08.343Z,11.93
2018-10-11T03:50:36.981Z,11.95
2018-10-11T03:53:05.482Z,11.86
2018-10-11T03:55:34.029Z,11.72
2018-10-11T03:58:02.509Z,11.74
2018-10-11T04:00:31.217Z,11.86
2018-10-11T04:02:59.797Z,11.80
2018-10-11T04:05:28.301Z,11.74
2018-10-11T04:07:56.848Z,11.72
2018-10-11T04:10:25.347Z,11.82
2018-10-11T04:12:53.848Z,11.94
2018-10-11T04:15:22.484Z,11.78
2018-10-11T04:17:50.989Z,11.76
2018-10-11T04:20:19.506Z,11.81
2018-10-11T04:22:48.065Z,11.81
2018-10-11T04:25:16.582Z,11.84
2018-10-11T04:27:45.123Z,11.69
2018-10-11T04:30:13.768Z,11.57
2018-10-11T04:32:42.349Z,11.51
2018-10-11T04:35:10.830Z,11.54
2018-10-11T04:37:39.435Z,11.58
2018-10-11T04:40:08.082Z,11.65
2018-10-11T04:42:36.753Z,11.77
2018-10-11T04:45:05.419Z,11.69
2018-10-11T04:47:34.015Z,11.54
2018-10-11T04:50:02.572Z,11.59
2018-10-11T04:52:31.176Z,11.44
2018-10-11T04:54:59.666Z,11.44
2018-10-11T04:57:28.216Z,11.37
2018-10-11T04:59:56.766Z,11.44
2018-10-11T05:02:25.409Z,11.29
2018-10-11T05:04:54.001Z,11.36
2018-10-11T05:07:22.531Z,11.46
2018-10-11T05:09:51.206Z,11.46
2018-10-11T05:12:19.773Z,11.41
2018-10-11T05:14:48.347Z,11.46
2018-10-11T05:17:18.755Z,11.47
2018-10-11T05:19:47.280Z,11.28
2018-10-11T05:22:15.851Z,11.25
2018-10-11T05:24:44.386Z,11.16
2018-10-11T05:27:12.970Z,11.15
2018-10-11T05:29:41.571Z,11.12
2018-10-11T05:32:10.113Z,11.24
2018-10-11T05:34:38.723Z,11.23
2018-10-11T05:37:13.818Z,11.18
2018-10-11T05:39:42.394Z,11.22
2018-10-11T05:42:10.995Z,11.20
2018-10-11T05:44:39.602Z,11.23
2018-10-11T05:47:08.162Z,11.21
2018-10-11T05:49:36.751Z,11.25
2018-10-11T05:52:05.349Z,11.40
2018-10-11T05:54:33.917Z,11.38
2018-10-11T05:57:02.417Z,11.46
2018-10-11T05:59:31.032Z,11.59
2018-10-11T06:01:59.582Z,11.79
2018-10-11T06:04:28.064Z,11.84
2018-10-11T06:06:56.607Z,11.69
2018-10-11T06:09:25.466Z,11.71
2018-10-11T06:11:54.130Z,11.79
2018-10-11T06:14:22.700Z,11.77
2018-10-11T06:16:51.205Z,11.85
2018-10-11T06:19:19.741Z,11.90
2018-10-11T06:21:48.261Z,11.91
2018-10-11T06:24:16.834Z,11.87
2018-10-11T06:26:45.348Z,11.94
2018-10-11T06:29:13.966Z,11.89
2018-10-11T06:31:42.588Z,11.84
2018-10-11T06:34:11.179Z,11.86
2018-10-11T06:36:40.540Z,11.94
2018-10-11T06:39:09.876Z,11.98
2018-10-11T06:41:38.555Z,12.06
2018-10-11T06:44:07.583Z,12.12
2018-10-11T06:46:36.243Z,12.22
2018-10-11T06:49:05.023Z,12.37
2018-10-11T06:51:33.784Z,12.44
2018-10-11T06:54:02.494Z,12.52
2018-10-11T06:56:31.084Z,12.54
2018-10-11T06:58:59.618Z,12.54
2018-10-11T07:01:28.220Z,12.58
2018-10-11T07:03:56.783Z,12.70
2018-10-11T07:06:25.306Z,12.85
2018-10-11T07:08:53.858Z,12.93
2018-10-11T07:11:22.441Z,13.08
2018-10-11T07:13:50.994Z,13.23
2018-10-11T07:16:19.571Z,13.40
2018-10-11T07:18:48.980Z,13.56
2018-10-11T07:21:17.512Z,13.67
2018-10-11T07:23:46.135Z,13.87
2018-10-11T07:26:14.675Z,14.07
2018-10-11T07:28:43.239Z,14.24
2018-10-11T07:31:11.781Z,14.33
2018-10-11T07:33:40.390Z,14.43
2018-10-11T07:36:08.986Z,14.57
2018-10-11T07:38:37.541Z,14.68
2018-10-11T07:41:06.251Z,14.80
2018-10-11T07:43:34.602Z,14.93
2018-10-11T07:46:03.189Z,14.81
2018-10-11T07:48:31.713Z,14.70
2018-10-11T07:51:00.245Z,14.69
2018-10-11T07:53:28.955Z,14.70
2018-10-11T07:55:57.530Z,14.82
2018-10-11T07:58:26.156Z,14.87
2018-10-11T08:00:54.681Z,15.02
2018-10-11T08:03:23.284Z,15.13
2018-10-11T08:05:52.009Z,15.24
2018-10-11T08:08:20.599Z,15.30
2018-10-11T08:10:49.351Z,15.42
2018-10-11T08:13:17.913Z,15.50
2018-10-11T08:15:46.507Z,15.58
2018-10-11T08:18:15.063Z,15.65
2018-10-11T08:20:43.555Z,15.81
2018-10-11T08:23:12.120Z,15.98
2018-10-11T08:25:40.991Z,16.02
2018-10-11T08:28:09.363Z,16.12
2018-10-11T08:30:37.899Z,16.20
2018-10-11T08:33:06.662Z,16.32
2018-10-11T08:35:35.159Z,16.44
2018-10-11T08:38:10.417Z,16.52
2018-10-11T08:40:38.831Z,16.55
2018-10-11T08:43:07.456Z,16.62
2018-10-11T08:45:35.993Z,16.73
2018-10-11T08:48:04.619Z,16.81
2018-10-11T08:50:33.200Z,16.84
2018-10-11T08:53:01.751Z,16.82
2018-10-11T08:55:30.424Z,16.84
2018-10-11T08:57:58.930Z,16.94
2018-10-11T09:00:27.482Z,17.13
2018-10-11T09:02:56.145Z,17.18
2018-10-11T09:05:24.706Z,17.27
2018-10-11T09:07:53.243Z,17.45
2018-10-11T09:10:21.856Z,17.46
2018-10-11T09:12:50.391Z,17.51
2018-10-11T09:15:19.010Z,17.64
2018-10-11T09:17:47.563Z,17.67
2018-10-11T09:20:16.147Z,17.89
2018-10-11T09:22:44.724Z,17.91
2018-10-11T09:25:13.300Z,17.99
2018-10-11T09:27:41.885Z,18.06
2018-10-11T09:30:10.464Z,18.21
2018-10-11T09:32:39.104Z,18.24
2018-10-11T09:35:07.978Z,18.30
2018-10-11T09:37:36.547Z,18.35
2018-10-11T09:40:05.506Z,18.49
2018-10-11T09:42:34.092Z,18.55
2018-10-11T09:45:02.665Z,18.58
2018-10-11T09:47:31.198Z,18.50
2018-10-11T09:49:59.771Z,18.54
2018-10-11T09:52:28.364Z,18.61
2018-10-11T09:54:57.130Z,18.66
2018-10-11T09:57:29.623Z,18.79
2018-10-11T09:59:58.712Z,18.93
2018-10-11T10:02:27.802Z,18.96
2018-10-11T10:05:03.843Z,18.96
2018-10-11T10:07:32.498Z,19.12
2018-10-11T10:10:01.047Z,19.27
2018-10-11T10:12:29.637Z,19.35
2018-10-11T10:14:58.318Z,19.48
2018-10-11T10:17:26.851Z,19.58
2018-10-11T10:19:55.394Z,19.63
2018-10-11T10:22:23.991Z,19.73
2018-10-11T10:24:52.552Z,19.74
2018-10-11T10:27:21.303Z,19.94
2018-10-11T10:29:49.641Z,19.98
2018-10-11T10:32:18.242Z,20.09
2018-10-11T10:34:46.750Z,20.06
2018-10-11T10:37:15.332Z,20.09
2018-10-11T10:39:44.072Z,20.29
2018-10-11T10:42:12.682Z,20.23
2018-10-11T10:44:41.239Z,20.21
2018-10-11T10:47:09.981Z,20.26
2018-10-11T10:49:38.542Z,20.45
2018-10-11T10:52:07.166Z,20.52
2018-10-11T10:54:36.427Z,20.51
2018-10-11T10:57:05.572Z,20.64
2018-10-11T10:59:34.187Z,20.75
2018-10-11T11:02:02.737Z,20.81
2018-10-11T11:04:31.305Z,20.91
2018-10-11T11:06:59.804Z,20.90
2018-10-11T11:09:28.377Z,20.93
2018-10-11T11:11:56.891Z,20.98
2018-10-11T11:14:25.444Z,20.98
2018-10-11T11:16:54.099Z,21.12
2018-10-11T11:19:22.592Z,21.27
2018-10-11T11:21:51.188Z,21.17
2018-10-11T11:24:19.705Z,21.05
2018-10-11T11:26:48.268Z,21.08
2018-10-11T11:29:16.867Z,21.01
2018-10-11T11:31:45.437Z,21.16
2018-10-11T11:34:13.979Z,21.31
2018-10-11T11:36:42.572Z,21.55
2018-10-11T11:39:11.323Z,21.69
2018-10-11T11:41:39.947Z,21.81
2018-10-11T11:44:08.503Z,21.92
2018-10-11T11:46:37.063Z,21.99
2018-10-11T11:49:05.619Z,22.01
2018-10-11T11:51:34.176Z,21.82
2018-10-11T11:54:02.748Z,21.75
2018-10-11T11:56:31.294Z,21.74
2018-10-11T11:58:59.890Z,21.80
2018-10-11T12:01:28.476Z,21.81
2018-10-11T12:03:56.982Z,21.84
2018-10-11T12:06:25.566Z,22.00
2018-10-11T12:08:54.078Z,22.18
2018-10-11T12:11:22.660Z,22.30
2018-10-11T12:13:51.264Z,22.56
2018-10-11T12:16:19.842Z,22.70
2018-10-11T12:18:48.399Z,22.82
2018-10-11T12:21:16.987Z,23.04
2018-10-11T12:23:45.530Z,23.20
2018-10-11T12:26:14.065Z,23.16
2018-10-11T12:28:42.747Z,23.49
2018-10-11T12:31:11.162Z,23.62
2018-10-11T12:33:39.744Z,23.67
2018-10-11T12:36:08.362Z,23.35
2018-10-11T12:38:36.956Z,22.76
2018-10-11T12:41:05.476Z,22.72
2018-10-11T12:43:34.015Z,22.62
2018-10-11T12:46:02.599Z,22.89
2018-10-11T12:48:31.118Z,23.12
2018-10-11T12:50:59.774Z,23.22
2018-10-11T12:53:28.336Z,22.96
2018-10-11T12:55:56.898Z,22.71
2018-10-11T12:58:25.498Z,22.67
2018-10-11T13:00:54.111Z,22.75
2018-10-11T13:03:22.837Z,22.75
2018-10-11T13:05:51.238Z,22.94
2018-10-11T13:08:19.755Z,22.85
2018-10-11T13:10:48.300Z,22.54
2018-10-11T13:13:16.871Z,22.58
2018-10-11T13:15:46.346Z,22.63
2018-10-11T13:18:14.842Z,22.39
2018-10-11T13:20:43.440Z,22.34
2018-10-11T13:23:15.753Z,22.26
2018-10-11T13:25:40.714Z,22.44
2018-10-11T13:28:09.262Z,22.42
2018-10-11T13:30:37.895Z,22.31
2018-10-11T13:33:06.439Z,22.40
2018-10-11T13:35:35.057Z,22.70
2018-10-11T13:38:03.590Z,22.99
2018-10-11T13:40:32.177Z,22.97
2018-10-11T13:43:01.076Z,22.87
2018-10-11T13:45:29.611Z,22.75
2018-10-11T13:47:58.253Z,23.16
2018-10-11T13:50:26.793Z,23.37
2018-10-11T13:52:55.344Z,23.35
2018-10-11T13:55:23.883Z,23.35
2018-10-11T13:57:52.499Z,23.52
2018-10-11T14:00:21.128Z,23.43
2018-10-11T14:02:49.767Z,23.35
2018-10-11T14:05:18.323Z,23.28
2018-10-11T14:07:46.861Z,23.20
2018-10-11T14:10:15.478Z,23.03
2018-10-11T14:12:44.054Z,22.93
2018-10-11T14:15:12.616Z,22.90
2018-10-11T14:17:41.229Z,22.73
2018-10-11T14:20:09.912Z,22.74
2018-10-11T14:22:38.441Z,22.59
2018-10-11T14:25:07.363Z,22.40
2018-10-11T14:27:35.933Z,22.38
2018-10-11T14:30:04.534Z,22.37
2018-10-11T14:32:33.191Z,22.30
2018-10-11T14:35:01.823Z,22.26
2018-10-11T14:37:30.473Z,22.08
2018-10-11T14:39:59.059Z,21.81
2018-10-11T14:42:27.591Z,21.76
2018-10-11T14:44:56.234Z,21.66
2018-10-11T14:47:24.783Z,21.56
2018-10-11T14:49:53.365Z,21.50
2018-10-11T14:52:21.921Z,21.41
2018-10-11T14:54:50.481Z,21.42
2018-10-11T14:57:19.294Z,21.30
2018-10-11T14:59:47.875Z,21.21
2018-10-11T15:02:16.505Z,21.08
2018-10-11T15:04:45.134Z,21.10
2018-10-11T15:07:13.688Z,21.09
2018-10-11T15:09:42.305Z,21.13
2018-10-11T15:12:10.915Z,21.06
2018-10-11T15:14:39.459Z,20.86
2018-10-11T15:17:08.055Z,20.73
2018-10-11T15:19:36.586Z,20.67
2018-10-11T15:22:05.202Z,20.65
2018-10-11T15:24:33.872Z,20.57
2018-10-11T15:27:02.394Z,20.57
2018-10-11T15:29:31.076Z,20.62
2018-10-11T15:31:59.553Z,20.61
2018-10-11T15:34:28.120Z,20.57
2018-10-11T15:36:56.678Z,20.58
2018-10-11T15:39:25.241Z,20.54
2018-10-11T15:41:53.833Z,20.53
2018-10-11T15:44:22.398Z,20.49
2018-10-11T15:46:50.950Z,20.47
2018-10-11T15:49:19.572Z,20.47
2018-10-11T15:51:48.096Z,20.56
2018-10-11T15:54:16.626Z,20.47
2018-10-11T15:56:45.155Z,20.45
2018-10-11T15:59:13.699Z,20.40
2018-10-11T16:01:42.290Z,20.40
2018-10-11T16:04:10.801Z,20.34
2018-10-11T16:06:39.483Z,20.27
2018-10-11T16:09:09.224Z,20.17
2018-10-11T16:11:37.770Z,20.16
2018-10-11T16:14:06.323Z,20.12
2018-10-11T16:16:34.882Z,20.02
2018-10-11T16:19:03.447Z,20.00
2018-10-11T16:21:31.952Z,19.97
2018-10-11T16:24:00.515Z,19.93
2018-10-11T16:26:29.196Z,19.93
2018-10-11T16:28:57.723Z,19.90
2018-10-11T16:31:26.379Z,19.89
2018-10-11T16:33:54.979Z,19.89
2018-10-11T16:36:23.610Z,19.94
2018-10-11T16:38:52.151Z,19.90
2018-10-11T16:41:20.738Z,19.93
2018-10-11T16:43:49.348Z,19.92
2018-10-11T16:46:17.881Z,19.90
2018-10-11T16:48:46.503Z,19.83
2018-10-11T16:51:15.039Z,19.78
2018-10-11T16:53:43.576Z,19.74
2018-10-11T16:56:12.115Z,19.66
2018-10-11T16:58:40.665Z,19.66
2018-10-11T17:01:09.278Z,19.63
2018-10-11T17:03:37.796Z,19.70
2018-10-11T17:06:06.382Z,19.67
2018-10-11T17:08:35.023Z,19.63
2018-10-11T17:11:03.583Z,19.62
2018-10-11T17:13:32.162Z,19.53
2018-10-11T17:16:00.748Z,19.57
2018-10-11T17:18:29.335Z,19.58
2018-10-11T17:20:58.055Z,19.58
2018-10-11T17:23:26.707Z,19.58
2018-10-11T17:25:55.296Z,19.53
2018-10-11T17:28:23.990Z,19.51
2018-10-11T17:30:52.647Z,19.58
2018-10-11T17:33:21.138Z,19.53
2018-10-11T17:35:49.645Z,19.56
2018-10-11T17:38:18.136Z,19.56
2018-10-11T17:40:46.708Z,19.46
2018-10-11T17:43:15.331Z,19.46
2018-10-11T17:45:43.910Z,19.50
2018-10-11T17:48:12.459Z,19.51
2018-10-11T17:50:41.007Z,19.48
2018-10-11T17:53:09.532Z,19.50
2018-10-11T17:55:38.067Z,19.46
2018-10-11T17:58:06.699Z,19.44
2018-10-11T18:00:36.715Z,19.37
2018-10-11T18:03:05.950Z,19.33
2018-10-11T18:05:34.466Z,19.36
2018-10-11T18:08:03.011Z,19.39
2018-10-11T18:10:31.528Z,19.34
2018-10-11T18:13:00.079Z,19.32
2018-10-11T18:15:28.719Z,19.33
2018-10-11T18:17:57.393Z,19.30
2018-10-11T18:20:25.987Z,19.25
2018-10-11T18:22:54.582Z,19.24
2018-10-11T18:25:23.454Z,19.23
2018-10-11T18:27:52.255Z,19.14
2018-10-11T18:30:20.830Z,19.09
2018-10-11T18:32:50.144Z,19.04
2018-10-11T18:35:18.821Z,19.04
2018-10-11T18:37:47.401Z,19.03
2018-10-11T18:40:15.922Z,18.96
2018-10-11T18:42:44.441Z,18.93
2018-10-11T18:45:12.966Z,18.87
2018-10-11T18:47:41.532Z,18.90
2018-10-11T18:50:10.111Z,18.87
2018-10-11T18:52:38.665Z,18.81
2018-10-11T18:55:07.350Z,18.83
2018-10-11T18:57:36.290Z,18.80
2018-10-11T19:00:05.471Z,18.73
2018-10-11T19:02:34.180Z,18.72
2018-10-11T19:05:02.761Z,18.72
2018-10-11T19:07:31.430Z,18.69
2018-10-11T19:09:59.996Z,18.70
2018-10-11T19:12:28.498Z,18.71
2018-10-11T19:14:57.063Z,18.64
2018-10-11T19:17:25.679Z,18.54
2018-10-11T19:19:54.246Z,18.47
2018-10-11T19:22:22.739Z,18.41
2018-10-11T19:24:51.295Z,18.31
2018-10-11T19:27:19.930Z,18.28
2018-10-11T19:29:48.446Z,18.19
2018-10-11T19:32:17.021Z,18.10
2018-10-11T19:34:45.626Z,18.04
2018-10-11T19:37:14.206Z,17.96
2018-10-11T19:39:42.735Z,17.94
2018-10-11T19:42:11.291Z,17.83
2018-10-11T19:44:39.819Z,17.81
2018-10-11T19:47:08.358Z,17.78
2018-10-11T19:49:36.883Z,17.72
2018-10-11T19:52:05.461Z,17.68
2018-10-11T19:54:34.065Z,17.69
2018-10-11T19:57:02.710Z,17.67
2018-10-11T19:59:31.239Z,17.76
2018-10-11T20:02:00.192Z,17.79
2018-10-11T20:04:28.814Z,17.80
2018-10-11T20:06:57.391Z,17.71
2018-10-11T20:09:26.003Z,17.82
2018-10-11T20:11:54.586Z,17.75
2018-10-11T20:14:23.075Z,17.74
2018-10-11T20:16:51.927Z,17.81
2018-10-11T20:19:20.495Z,17.78
2018-10-11T20:21:49.057Z,17.73
2018-10-11T20:24:17.632Z,17.71
2018-10-11T20:26:46.224Z,17.70
2018-10-11T20:29:14.883Z,17.75
2018-10-11T20:31:43.440Z,17.70
2018-10-11T20:34:12.048Z,17.58
2018-10-11T20:36:40.566Z,17.54
2018-10-11T20:39:13.196Z,17.54
2018-10-11T20:41:41.746Z,17.46
2018-10-11T20:44:10.231Z,17.42
2018-10-11T20:46:38.874Z,17.41
2018-10-11T20:49:07.393Z,17.43
2018-10-11T20:51:35.958Z,17.32
2018-10-11T20:54:04.477Z,17.34
2018-10-11T20:56:39.434Z,17.34
2018-10-11T20:59:08.097Z,17.29
2018-10-11T21:01:36.603Z,17.18
2018-10-11T21:04:05.154Z,17.25
2018-10-11T21:06:33.677Z,17.18
2018-10-11T21:09:02.271Z,17.14
2018-10-11T21:11:30.818Z,17.13
2018-10-11T21:13:59.382Z,17.09
2018-10-11T21:16:27.992Z,17.17
2018-10-11T21:18:56.522Z,17.08
2018-10-11T21:21:25.147Z,17.11
2018-10-11T21:23:54.607Z,17.09
2018-10-11T21:26:23.138Z,17.07
2018-10-11T21:28:51.726Z,16.96
2018-10-11T21:31:20.317Z,16.96
2018-10-11T21:33:48.855Z,17.02
2018-10-11T21:36:17.417Z,17.10
2018-10-11T21:38:45.935Z,17.15
2018-10-11T21:41:14.436Z,17.25
2018-10-11T21:43:42.978Z,17.18
2018-10-11T21:46:11.510Z,17.10
2018-10-11T21:48:40.133Z,17.18
2018-10-11T21:51:08.648Z,17.11
2018-10-11T21:53:37.186Z,17.13
2018-10-11T21:56:05.758Z,17.07
2018-10-11T21:58:34.357Z,17.09
2018-10-11T22:01:07.963Z,17.08
2018-10-11T22:03:36.566Z,17.02
2018-10-11T22:06:05.146Z,16.93
2018-10-11T22:08:33.745Z,16.91
2018-10-11T22:11:02.271Z,17.08
2018-10-11T22:13:30.826Z,16.92
2018-10-11T22:15:59.535Z,16.94
2018-10-11T22:21:10.601Z,17.11
2018-10-11T22:23:40.070Z,17.02
2018-10-11T22:26:09.448Z,17.03
2018-10-11T22:28:38.576Z,16.99
2018-10-11T22:31:07.792Z,16.96
2018-10-11T22:33:36.385Z,16.88
2018-10-11T22:36:05.002Z,16.86
2018-10-11T22:38:33.547Z,16.83
2018-10-11T22:41:02.180Z,16.79
2018-10-11T22:43:31.297Z,16.87
2018-10-11T22:45:59.917Z,16.83
2018-10-11T22:48:28.514Z,16.76
2018-10-11T22:50:57.115Z,16.67
2018-10-11T22:53:25.627Z,16.76
2018-10-11T22:55:54.178Z,16.80
2018-10-11T22:58:22.708Z,16.59
2018-10-11T23:00:51.896Z,16.52
2018-10-11T23:03:20.438Z,16.48
2018-10-11T23:05:49.001Z,16.48
2018-10-11T23:08:17.634Z,16.55
2018-10-11T23:10:46.145Z,16.53
2018-10-11T23:13:14.721Z,16.58
2018-10-11T23:15:43.412Z,16.63
2018-10-11T23:18:12.761Z,16.55
2018-10-11T23:20:41.240Z,16.50
2018-10-11T23:23:09.813Z,16.50
2018-10-11T23:25:38.381Z,16.55
2018-10-11T23:28:07.186Z,16.58
2018-10-11T23:30:35.714Z,16.54
2018-10-11T23:33:04.250Z,16.73
2018-10-11T23:35:32.790Z,16.86
2018-10-11T23:38:01.349Z,16.74
2018-10-11T23:40:30.024Z,16.82
2018-10-11T23:42:58.632Z,16.84
2018-10-11T23:45:27.205Z,16.93
2018-10-11T23:47:55.694Z,17.00
2018-10-11T23:50:24.194Z,16.87
2018-10-11T23:52:52.777Z,16.97
2018-10-11T23:55:21.266Z,16.98
2018-10-11T23:57:49.793Z,16.88
